Time;durP1;ratioP1;P1;durP2;ratioP2;P2;SDS_P1;SDS_P2;PMS_P1;PMS_P2;Temp;Humidity;BMP_temperature;BMP_pressure;BME280_temperature;BME280_humidity;BME280_pressure;Samples;Min_cycle;Max_cycle;Signal;HPM_P1;HPM_P2
2023/01/27 00:02:39;;;;;;;32.67;16.23;;;-0.80;99.90;;;;;;5047510;28;20036;-85
2023/01/27 00:05:09;;;;;;;29.60;16.47;;;-0.80;99.90;;;;;;5064066;28;20017;-85
2023/01/27 00:07:37;;;;;;;31.03;15.73;;;-0.80;99.90;;;;;;5044674;28;20060;-85
2023/01/27 00:10:46;;;;;;;29.37;16.00;;;-0.80;99.90;;;;;;5059969;28;20032;-85
2023/01/27 00:13:30;;;;;;;20.33;12.63;;;-0.80;99.90;;;;;;5051253;28;20558;-85
2023/01/27 00:15:56;;;;;;;25.33;13.10;;;-0.80;99.90;;;;;;5046700;28;20474;-85
2023/01/27 00:18:25;;;;;;;24.03;13.73;;;-0.90;99.90;;;;;;5033038;28;20028;-85
2023/01/27 00:26:21;;;;;;;19.10;10.87;;;-0.90;99.90;;;;;;5053062;28;20027;-85
2023/01/27 00:28:47;;;;;;;21.93;11.83;;;-0.90;99.90;;;;;;5052984;28;20029;-85
2023/01/27 00:34:07;;;;;;;21.37;12.17;;;-0.90;99.90;;;;;;5059001;28;20433;-85
2023/01/27 00:36:34;;;;;;;23.53;12.37;;;-0.90;99.90;;;;;;5045964;28;20040;-85
2023/01/27 00:38:59;;;;;;;19.97;11.53;;;-0.90;99.90;;;;;;5047070;28;20347;-85
2023/01/27 00:41:27;;;;;;;22.90;11.57;;;-0.90;99.90;;;;;;5052000;28;20025;-85
2023/01/27 00:43:53;;;;;;;23.93;11.70;;;-0.90;99.90;;;;;;5058052;28;20044;-84
2023/01/27 00:46:21;;;;;;;19.40;11.80;;;-0.90;99.90;;;;;;5034364;28;20025;-85
2023/01/27 00:48:47;;;;;;;18.63;10.83;;;-0.90;99.90;;;;;;5051514;28;20026;-85
2023/01/27 00:51:15;;;;;;;20.60;11.07;;;-0.90;99.90;;;;;;5061011;28;20025;-85
2023/01/27 00:53:44;;;;;;;15.73;9.33;;;-0.90;99.90;;;;;;5061366;28;20057;-85
2023/01/27 00:56:10;;;;;;;20.23;9.77;;;-0.90;99.90;;;;;;5058477;28;20039;-84
2023/01/27 00:58:39;;;;;;;17.50;9.90;;;-1.00;99.90;;;;;;5046970;28;20053;-85
2023/01/27 01:01:09;;;;;;;16.97;9.37;;;-1.00;99.90;;;;;;5053417;28;20051;-85
2023/01/27 01:03:36;;;;;;;19.83;10.23;;;-1.00;99.90;;;;;;5057534;28;20032;-85
2023/01/27 01:06:08;;;;;;;16.80;9.30;;;-1.00;99.90;;;;;;5066662;28;20021;-84
2023/01/27 01:08:37;;;;;;;19.07;9.33;;;-1.00;99.90;;;;;;5043795;28;20033;-85
2023/01/27 01:11:08;;;;;;;15.80;8.87;;;-1.00;99.90;;;;;;5045588;28;20044;-85
2023/01/27 01:13:36;;;;;;;15.53;9.10;;;-1.00;99.90;;;;;;5029271;28;20091;-85
2023/01/27 01:16:29;;;;;;;17.23;9.87;;;-1.00;99.90;;;;;;5052662;28;20497;-85
2023/01/27 01:18:57;;;;;;;17.60;9.87;;;-1.00;99.90;;;;;;5026639;28;20041;-85
2023/01/27 01:21:30;;;;;;;16.30;8.97;;;-1.00;99.90;;;;;;5052662;28;20029;-85
2023/01/27 01:23:58;;;;;;;17.93;10.20;;;-1.10;99.90;;;;;;5051661;28;20029;-85
2023/01/27 01:26:27;;;;;;;17.60;9.70;;;-1.00;99.90;;;;;;5056783;28;20521;-85
2023/01/27 01:28:57;;;;;;;15.00;8.90;;;-1.10;99.90;;;;;;5037240;28;20075;-85
2023/01/27 01:31:30;;;;;;;19.20;9.57;;;-1.10;99.90;;;;;;5054076;28;20021;-85
2023/01/27 01:33:55;;;;;;;15.70;8.97;;;-1.10;99.90;;;;;;5065798;28;20032;-85
2023/01/27 01:36:21;;;;;;;15.57;8.80;;;-1.10;99.90;;;;;;5050091;28;20025;-85
2023/01/27 01:38:47;;;;;;;17.30;9.53;;;-1.10;99.90;;;;;;5058495;28;20056;-85
2023/01/27 01:41:16;;;;;;;18.30;8.93;;;-1.10;99.90;;;;;;5043158;28;20032;-85
2023/01/27 01:43:44;;;;;;;17.87;9.30;;;-1.10;99.90;;;;;;5054795;28;20017;-85
2023/01/27 01:46:11;;;;;;;18.17;9.67;;;-1.20;99.90;;;;;;5037717;28;20470;-85
2023/01/27 01:48:39;;;;;;;17.03;9.00;;;-1.20;99.90;;;;;;5048875;28;20045;-85
2023/01/27 01:51:10;;;;;;;18.07;9.13;;;-1.30;99.90;;;;;;5032719;28;20021;-85
2023/01/27 01:53:41;;;;;;;18.17;9.67;;;-1.20;99.90;;;;;;5058589;28;20369;-85
2023/01/27 01:56:15;;;;;;;16.43;8.97;;;-1.30;99.90;;;;;;5038824;28;20092;-85
2023/01/27 01:58:43;;;;;;;16.27;8.33;;;-1.30;99.90;;;;;;5050583;28;20482;-84
2023/01/27 02:01:10;;;;;;;19.07;9.30;;;-1.30;99.90;;;;;;5057454;28;20029;-84
2023/01/27 02:03:43;;;;;;;16.10;8.57;;;-1.30;99.90;;;;;;5059116;28;20026;-84
2023/01/27 02:06:10;;;;;;;18.80;9.83;;;-1.30;99.90;;;;;;5048177;28;20049;-84
2023/01/27 02:08:42;;;;;;;17.57;8.90;;;-1.30;99.90;;;;;;5053415;28;20021;-84
2023/01/27 02:11:09;;;;;;;16.17;9.63;;;-1.30;99.90;;;;;;5036358;28;20068;-84
2023/01/27 02:13:34;;;;;;;20.87;11.03;;;-1.30;99.90;;;;;;5054265;28;20093;-84
2023/01/27 02:16:01;;;;;;;21.17;11.33;;;-1.30;99.90;;;;;;5070542;28;20021;-84
2023/01/27 02:18:28;;;;;;;20.80;11.17;;;-1.30;99.90;;;;;;5038917;28;20052;-84
2023/01/27 02:20:54;;;;;;;19.43;9.60;;;-1.30;99.90;;;;;;5046526;28;20036;-84
2023/01/27 02:23:31;;;;;;;22.83;11.60;;;-1.30;99.90;;;;;;5072527;28;20037;-84
2023/01/27 02:26:05;;;;;;;23.33;12.50;;;-1.30;99.90;;;;;;5067357;28;20021;-84
2023/01/27 02:28:31;;;;;;;24.53;12.10;;;-1.40;99.90;;;;;;5055639;28;20116;-84
2023/01/27 02:30:57;;;;;;;21.33;11.67;;;-1.40;99.90;;;;;;5060156;28;20104;-84
2023/01/27 02:33:23;;;;;;;22.47;11.50;;;-1.40;99.90;;;;;;5042903;28;20124;-84
2023/01/27 02:35:58;;;;;;;22.63;10.83;;;-1.40;99.90;;;;;;5067574;28;20032;-84
2023/01/27 02:38:26;;;;;;;18.20;8.60;;;-1.30;99.90;;;;;;5056175;28;20416;-84
2023/01/27 02:40:54;;;;;;;20.37;11.47;;;-1.30;99.90;;;;;;5063633;28;20032;-84
2023/01/27 02:43:20;;;;;;;26.17;12.37;;;-1.30;99.90;;;;;;5057137;28;20025;-84
2023/01/27 02:45:46;;;;;;;27.23;12.37;;;-1.30;99.90;;;;;;5070471;28;20032;-83
2023/01/27 02:48:12;;;;;;;25.70;12.83;;;-1.30;99.90;;;;;;5074000;28;20021;-83
2023/01/27 02:50:38;;;;;;;27.57;13.07;;;-1.40;99.90;;;;;;5048979;28;20032;-84
2023/01/27 02:53:04;;;;;;;29.17;13.17;;;-1.40;99.90;;;;;;5070301;28;20076;-84
2023/01/27 02:55:30;;;;;;;32.53;15.00;;;-1.40;99.90;;;;;;5046755;28;20028;-84
2023/01/27 02:57:55;;;;;;;31.90;14.50;;;-1.40;99.90;;;;;;5069355;28;20049;-83
2023/01/27 03:00:21;;;;;;;30.40;14.13;;;-1.40;99.90;;;;;;5041709;28;20474;-83
2023/01/27 03:02:47;;;;;;;27.67;13.50;;;-1.40;99.90;;;;;;5051325;28;20025;-84
2023/01/27 03:05:14;;;;;;;29.87;13.70;;;-1.40;99.90;;;;;;5050374;28;20009;-84
2023/01/27 03:07:40;;;;;;;28.53;12.97;;;-1.40;99.90;;;;;;5054218;28;20056;-84
2023/01/27 03:10:07;;;;;;;32.70;14.87;;;-1.40;99.90;;;;;;5056162;28;20029;-84
2023/01/27 03:12:35;;;;;;;32.83;16.00;;;-1.50;99.90;;;;;;5069593;28;20010;-84
2023/01/27 03:20:29;;;;;;;34.00;14.50;;;-1.50;99.90;;;;;;5067193;28;20047;-84
2023/01/27 03:22:55;;;;;;;29.23;13.07;;;-1.50;99.90;;;;;;5066422;28;20017;-84
2023/01/27 03:25:21;;;;;;;34.23;14.27;;;-1.50;99.90;;;;;;5055770;28;20045;-84
2023/01/27 03:27:47;;;;;;;39.77;16.03;;;-1.50;99.90;;;;;;5052531;28;20026;-84
2023/01/27 03:30:12;;;;;;;33.80;14.10;;;-1.60;99.90;;;;;;5052179;28;20049;-84
2023/01/27 03:32:45;;;;;;;31.00;14.10;;;-1.60;99.90;;;;;;5037841;28;20034;-84
2023/01/27 03:35:13;;;;;;;38.80;15.77;;;-1.60;99.90;;;;;;5052763;28;20036;-83
2023/01/27 03:48:36;;;;;;;36.33;14.80;;;-1.70;99.90;;;;;;5064669;28;20027;-84
2023/01/27 03:51:04;;;;;;;34.97;15.23;;;-1.70;99.90;;;;;;5056705;28;20052;-84
2023/01/27 03:53:30;;;;;;;34.03;14.93;;;-1.70;99.90;;;;;;5062148;28;20021;-84
2023/01/27 03:55:55;;;;;;;31.37;14.07;;;-1.70;99.90;;;;;;5063648;28;20040;-83
2023/01/27 03:58:27;;;;;;;38.57;15.53;;;-1.70;99.90;;;;;;5056347;28;20112;-84
2023/01/27 04:00:59;;;;;;;41.37;15.63;;;-1.70;99.90;;;;;;5056570;28;20029;-84
2023/01/27 04:09:03;;;;;;;37.20;14.03;;;-1.70;99.90;;;;;;5069327;28;20039;-84
2023/01/27 04:14:14;;;;;;;38.07;15.70;;;-1.70;99.90;;;;;;5063631;28;20029;-84
2023/01/27 04:16:39;;;;;;;33.43;14.80;;;-1.70;99.90;;;;;;5053836;28;20044;-84
2023/01/27 04:19:09;;;;;;;34.30;14.57;;;-1.70;99.90;;;;;;5057147;28;20021;-84
2023/01/27 04:21:35;;;;;;;32.33;14.30;;;-1.70;99.90;;;;;;5072385;28;20023;-84
2023/01/27 04:24:01;;;;;;;31.27;13.73;;;-1.70;99.90;;;;;;5065857;28;20036;-84
2023/01/27 04:26:33;;;;;;;35.90;15.20;;;-1.70;99.90;;;;;;5060094;28;20025;-84
2023/01/27 04:29:01;;;;;;;34.83;14.33;;;-1.70;99.90;;;;;;5060147;28;20060;-84
2023/01/27 04:31:27;;;;;;;38.23;14.97;;;-1.70;99.90;;;;;;5060162;28;20104;-84
2023/01/27 04:33:55;;;;;;;35.50;15.43;;;-1.70;99.90;;;;;;5056900;28;20032;-84
2023/01/27 04:36:29;;;;;;;34.80;14.83;;;-1.70;99.90;;;;;;5056845;28;20040;-84
2023/01/27 04:38:57;;;;;;;35.07;14.33;;;-1.70;99.90;;;;;;5067331;28;20032;-84
2023/01/27 04:41:30;;;;;;;36.27;14.87;;;-1.70;99.90;;;;;;5061541;28;20080;-84
2023/01/27 04:43:58;;;;;;;37.37;15.10;;;-1.70;99.90;;;;;;5056870;28;20009;-84
2023/01/27 04:46:40;;;;;;;34.37;15.30;;;-1.70;99.90;;;;;;5059548;28;20005;-84
2023/01/27 04:49:09;;;;;;;36.53;14.97;;;-1.70;99.90;;;;;;5059537;28;20060;-84
2023/01/27 04:51:37;;;;;;;36.37;16.10;;;-1.70;99.90;;;;;;5077418;28;20050;-84
2023/01/27 04:54:10;;;;;;;37.17;15.77;;;-1.70;99.90;;;;;;5069966;28;20032;-84
2023/01/27 04:56:47;;;;;;;40.37;17.23;;;-1.70;99.90;;;;;;5057740;28;20017;-84
2023/01/27 04:59:40;;;;;;;38.07;16.63;;;-1.70;99.90;;;;;;5071464;28;20037;-84
2023/01/27 05:02:09;;;;;;;36.27;15.77;;;-1.70;99.90;;;;;;5053057;28;20033;-84
2023/01/27 05:04:37;;;;;;;40.77;16.10;;;-1.70;99.90;;;;;;5046271;28;20063;-84
2023/01/27 05:07:10;;;;;;;39.83;16.93;;;-1.70;99.90;;;;;;5077138;28;20047;-84
2023/01/27 05:09:38;;;;;;;39.97;17.67;;;-1.60;99.90;;;;;;5076514;28;20088;-84
2023/01/27 05:12:07;;;;;;;36.77;17.40;;;-1.70;99.90;;;;;;5053015;28;20036;-84
2023/01/27 05:14:40;;;;;;;38.60;16.00;;;-1.70;99.90;;;;;;5060263;28;20040;-84
2023/01/27 05:17:08;;;;;;;39.93;16.17;;;-1.70;99.90;;;;;;5052398;28;20056;-83
2023/01/27 05:19:36;;;;;;;40.80;16.77;;;-1.70;99.90;;;;;;5057502;28;20032;-83
2023/01/27 05:22:10;;;;;;;48.47;21.73;;;-1.70;99.90;;;;;;5051161;28;20021;-83
2023/01/27 05:24:38;;;;;;;34.80;16.70;;;-1.70;99.90;;;;;;5035923;28;20044;-83
2023/01/27 05:27:07;;;;;;;32.07;16.10;;;-1.70;99.90;;;;;;5061765;28;20022;-83
2023/01/27 05:29:57;;;;;;;35.57;14.87;;;-1.60;99.90;;;;;;5066125;28;20029;-84
2023/01/27 05:32:30;;;;;;;41.17;16.20;;;-1.60;99.90;;;;;;5064640;28;20021;-84
2023/01/27 05:34:59;;;;;;;32.07;15.07;;;-1.60;99.90;;;;;;5066922;28;20021;-84
2023/01/27 05:37:26;;;;;;;35.70;15.13;;;-1.60;99.90;;;;;;5038644;28;20056;-82
2023/01/27 05:39:59;;;;;;;33.83;14.90;;;-1.60;99.90;;;;;;5039415;28;20028;-82
2023/01/27 05:42:27;;;;;;;33.20;15.87;;;-1.60;99.90;;;;;;5038063;28;20104;-79
2023/01/27 05:47:39;;;;;;;38.30;18.37;;;-1.60;99.90;;;;;;5035550;28;20052;-82
2023/01/27 05:50:07;;;;;;;34.57;16.30;;;-1.60;99.90;;;;;;5036903;28;20466;-82
2023/01/27 05:52:33;;;;;;;38.07;18.37;;;-1.60;99.90;;;;;;5036309;28;20473;-82
2023/01/27 05:54:58;;;;;;;35.07;16.57;;;-1.60;99.90;;;;;;5034173;28;20033;-82
2023/01/27 05:57:24;;;;;;;36.03;17.03;;;-1.60;99.90;;;;;;5033981;28;20363;-82
2023/01/27 05:59:49;;;;;;;35.77;16.67;;;-1.60;99.90;;;;;;5034393;28;20347;-82
2023/01/27 06:02:15;;;;;;;32.20;15.77;;;-1.60;99.90;;;;;;5033021;28;20060;-82
2023/01/27 06:04:41;;;;;;;34.00;15.57;;;-1.60;99.90;;;;;;5033436;28;20419;-82
2023/01/27 06:07:06;;;;;;;37.33;15.47;;;-1.60;99.90;;;;;;5042995;28;20021;-82
2023/01/27 06:09:32;;;;;;;40.10;17.33;;;-1.60;99.90;;;;;;5048244;28;20389;-82
2023/01/27 06:11:57;;;;;;;32.27;15.73;;;-1.60;99.90;;;;;;5063327;28;20081;-84
2023/01/27 06:14:23;;;;;;;36.20;16.23;;;-1.60;99.90;;;;;;5052597;28;20375;-82
2023/01/27 06:16:48;;;;;;;36.23;16.80;;;-1.60;99.90;;;;;;5068292;28;20092;-85
2023/01/27 06:19:16;;;;;;;37.60;16.43;;;-1.60;99.90;;;;;;5075731;28;20037;-84
2023/01/27 06:22:01;;;;;;;36.50;16.03;;;-1.60;99.90;;;;;;5059630;28;20036;-84
2023/01/27 06:24:27;;;;;;;38.20;16.53;;;-1.60;99.90;;;;;;5056663;28;20047;-84
2023/01/27 06:27:16;;;;;;;37.33;18.00;;;-1.50;99.90;;;;;;5056514;28;20036;-84
2023/01/27 06:30:10;;;;;;;38.77;18.03;;;-1.50;99.90;;;;;;5062506;28;20076;-84
2023/01/27 06:32:38;;;;;;;35.07;15.97;;;-1.50;99.90;;;;;;5051272;28;20024;-83
2023/01/27 06:35:20;;;;;;;39.70;16.40;;;-1.50;99.90;;;;;;5055992;28;20089;-84
2023/01/27 06:37:48;;;;;;;31.50;14.87;;;-1.50;99.90;;;;;;5055049;28;20005;-84
2023/01/27 06:40:17;;;;;;;34.13;16.70;;;-1.50;99.90;;;;;;5055989;28;20013;-84
2023/01/27 06:42:50;;;;;;;39.57;17.97;;;-1.50;99.90;;;;;;5073929;28;20060;-84
2023/01/27 06:45:19;;;;;;;35.10;16.47;;;-1.50;99.90;;;;;;5056336;28;20051;-84
2023/01/27 06:47:59;;;;;;;37.57;18.57;;;-1.50;99.90;;;;;;5068900;28;20012;-84
2023/01/27 06:50:28;;;;;;;34.43;16.93;;;-1.50;99.90;;;;;;5056508;28;20080;-84
2023/01/27 06:53:06;;;;;;;42.43;19.67;;;-1.50;99.90;;;;;;5028924;28;20040;-86
2023/01/27 06:55:40;;;;;;;38.33;19.80;;;-1.50;99.90;;;;;;5039929;28;20099;-86
2023/01/27 06:58:07;;;;;;;39.77;18.20;;;-1.50;99.90;;;;;;5037920;28;20110;-86
2023/01/27 07:00:32;;;;;;;35.57;18.00;;;-1.50;99.90;;;;;;5043178;28;20680;-85
2023/01/27 07:02:58;;;;;;;36.80;16.73;;;-1.50;99.90;;;;;;5043693;28;20025;-85
2023/01/27 07:05:28;;;;;;;39.73;17.47;;;-1.50;99.90;;;;;;5025401;28;20729;-85
2023/01/27 07:07:56;;;;;;;36.97;18.00;;;-1.40;99.90;;;;;;5041222;28;20031;-83
2023/01/27 07:10:30;;;;;;;38.80;17.70;;;-1.50;99.90;;;;;;5045171;28;20044;-85
2023/01/27 07:13:09;;;;;;;39.22;16.70;;;-1.40;99.90;;;;;;5045539;28;20071;-85
2023/01/27 07:15:37;;;;;;;41.10;18.77;;;-1.50;99.90;;;;;;5047590;28;20470;-85
2023/01/27 07:18:03;;;;;;;39.13;17.83;;;-1.50;99.90;;;;;;5046461;28;20033;-86
2023/01/27 07:20:30;;;;;;;41.37;18.80;;;-1.50;99.90;;;;;;5030449;28;20031;-85
2023/01/27 07:22:57;;;;;;;42.87;18.30;;;-1.40;99.90;;;;;;5047109;28;20032;-86
2023/01/27 07:25:23;;;;;;;42.40;19.10;;;-1.40;99.90;;;;;;5042902;28;20559;-86
2023/01/27 07:27:49;;;;;;;38.97;17.90;;;-1.40;99.90;;;;;;5040757;28;20032;-86
2023/01/27 07:30:17;;;;;;;41.67;19.40;;;-1.40;99.90;;;;;;5042038;28;20025;-86
2023/01/27 07:32:50;;;;;;;37.57;18.57;;;-1.40;99.90;;;;;;5027014;28;20055;-85
2023/01/27 07:35:17;;;;;;;43.50;18.67;;;-1.40;99.90;;;;;;5019079;28;20024;-86
2023/01/27 07:38:00;;;;;;;43.20;18.53;;;-1.40;99.90;;;;;;5041559;28;20126;-85
2023/01/27 07:40:28;;;;;;;36.40;17.57;;;-1.40;99.90;;;;;;5042505;28;20029;-85
2023/01/27 07:43:16;;;;;;;35.30;17.17;;;-1.30;99.90;;;;;;5043079;28;20021;-85
2023/01/27 07:46:01;;;;;;;38.30;17.47;;;-1.30;99.90;;;;;;5035236;28;20038;-85
2023/01/27 07:48:29;;;;;;;33.63;16.73;;;-1.30;99.90;;;;;;5042649;28;20017;-85
2023/01/27 07:50:57;;;;;;;31.37;15.23;;;-1.30;99.90;;;;;;5043244;28;20071;-85
2023/01/27 07:53:30;;;;;;;34.33;16.97;;;-1.30;99.90;;;;;;5042541;28;20028;-85
2023/01/27 07:56:31;;;;;;;38.67;19.27;;;-1.30;99.90;;;;;;5042671;28;20088;-85
2023/01/27 07:58:59;;;;;;;32.43;15.97;;;-1.20;99.90;;;;;;5051954;28;20425;-80
2023/01/27 08:01:27;;;;;;;33.30;16.37;;;-1.20;99.90;;;;;;5055605;28;20021;-79
2023/01/27 08:04:00;;;;;;;32.63;15.60;;;-1.20;99.90;;;;;;5055734;28;20161;-80
2023/01/27 08:06:51;;;;;;;31.83;16.13;;;-1.10;99.90;;;;;;5038536;28;20458;-80
2023/01/27 08:09:17;;;;;;;33.77;15.80;;;-1.10;99.90;;;;;;5057277;28;20109;-78
2023/01/27 08:11:42;;;;;;;32.63;16.37;;;-1.10;99.90;;;;;;5058644;28;20464;-78
2023/01/27 08:14:08;;;;;;;37.10;17.87;;;-1.00;99.90;;;;;;5059787;28;20025;-78
2023/01/27 08:16:38;;;;;;;37.40;17.03;;;-1.10;99.90;;;;;;5058173;28;20025;-79
2023/01/27 08:19:06;;;;;;;36.33;16.97;;;-1.00;99.90;;;;;;5057037;28;20178;-79
2023/01/27 08:22:10;;;;;;;36.33;18.20;;;-1.00;99.90;;;;;;5054423;28;20484;-79
2023/01/27 08:24:41;;;;;;;35.47;16.03;;;-1.00;99.90;;;;;;5035305;28;20037;-79
2023/01/27 08:27:09;;;;;;;35.60;16.80;;;-1.00;99.90;;;;;;5036890;28;20033;-79
2023/01/27 08:29:37;;;;;;;33.73;15.57;;;-0.90;99.90;;;;;;5039041;28;20120;-79
2023/01/27 08:32:05;;;;;;;33.13;16.53;;;-0.90;99.90;;;;;;5052533;28;20021;-80
2023/01/27 08:34:32;;;;;;;33.53;16.40;;;-0.90;99.90;;;;;;5057329;28;20036;-80
2023/01/27 08:36:57;;;;;;;30.20;15.43;;;-0.90;99.90;;;;;;5038037;28;20100;-80
2023/01/27 08:39:30;;;;;;;32.30;15.40;;;-0.90;99.90;;;;;;5056213;28;20497;-80
2023/01/27 08:42:08;;;;;;;38.53;17.13;;;-0.90;99.90;;;;;;5056246;28;20024;-80
2023/01/27 08:44:41;;;;;;;40.73;18.00;;;-0.90;99.90;;;;;;5056033;28;20090;-80
2023/01/27 08:47:07;;;;;;;35.13;17.37;;;-0.90;99.90;;;;;;5053089;28;20017;-80
2023/01/27 08:49:39;;;;;;;35.20;17.83;;;-0.90;99.90;;;;;;5042869;28;20029;-85
2023/01/27 08:52:07;;;;;;;41.17;18.47;;;-0.90;99.90;;;;;;5023165;28;20071;-85
2023/01/27 08:54:35;;;;;;;40.43;18.37;;;-0.90;99.90;;;;;;5042652;28;20116;-85
2023/01/27 08:57:01;;;;;;;41.53;20.03;;;-0.80;99.90;;;;;;5026640;28;20104;-84
2023/01/27 08:59:29;;;;;;;39.77;18.47;;;-0.90;99.90;;;;;;5043436;28;20068;-80
2023/01/27 09:02:00;;;;;;;46.53;24.63;;;-0.80;99.90;;;;;;5049132;28;20032;-80
2023/01/27 09:04:29;;;;;;;44.27;20.63;;;-0.80;99.90;;;;;;5040147;28;20047;-80
2023/01/27 09:06:57;;;;;;;38.37;18.70;;;-0.80;99.90;;;;;;5023395;28;20028;-80
2023/01/27 09:09:23;;;;;;;36.43;17.83;;;-0.80;99.90;;;;;;5048373;28;20072;-80
2023/01/27 09:11:48;;;;;;;33.00;15.90;;;-0.80;99.90;;;;;;5048681;28;20025;-80
2023/01/27 09:14:29;;;;;;;36.27;17.73;;;-0.80;99.90;;;;;;5049410;28;20048;-80
2023/01/27 09:16:57;;;;;;;38.70;17.23;;;-0.80;99.90;;;;;;5036396;28;20529;-80
2023/01/27 09:19:30;;;;;;;32.50;16.07;;;-0.80;99.90;;;;;;5046673;28;20115;-82
2023/01/27 09:21:58;;;;;;;34.80;17.07;;;-0.80;99.90;;;;;;5019898;28;20465;-82
2023/01/27 09:24:26;;;;;;;33.27;17.07;;;-0.80;99.90;;;;;;5037028;28;20017;-82
2023/01/27 09:26:51;;;;;;;38.37;17.87;;;-0.80;99.90;;;;;;5020216;28;20029;-83
2023/01/27 09:29:17;;;;;;;30.23;15.63;;;-0.70;99.90;;;;;;5036312;28;20029;-83
2023/01/27 09:31:42;;;;;;;30.83;14.80;;;-0.70;99.90;;;;;;5037299;28;20025;-83
2023/01/27 09:34:08;;;;;;;32.47;16.43;;;-0.70;99.90;;;;;;5034637;28;20025;-83
2023/01/27 09:36:44;;;;;;;31.37;15.07;;;-0.70;99.90;;;;;;5036320;28;20048;-83
2023/01/27 09:39:11;;;;;;;34.50;15.83;;;-0.70;99.90;;;;;;5036742;28;20021;-81
2023/01/27 09:41:55;;;;;;;36.90;18.03;;;-0.70;99.90;;;;;;5036368;28;20079;-88
2023/01/27 09:44:42;;;;;;;33.43;15.43;;;-0.70;99.90;;;;;;5030716;28;20541;-82
2023/01/27 09:47:31;;;;;;;32.60;15.63;;;-0.70;99.90;;;;;;5019426;28;20021;-82
2023/01/27 09:50:19;;;;;;;33.40;15.70;;;-0.70;99.90;;;;;;5019253;28;21340;-81
2023/01/27 09:53:02;;;;;;;33.40;15.83;;;-0.70;99.90;;;;;;5018411;28;20029;-81
2023/01/27 09:55:48;;;;;;;33.97;15.23;;;-0.70;99.90;;;;;;5035751;28;20504;-81
2023/01/27 09:58:48;;;;;;;33.20;15.63;;;-0.80;99.90;;;;;;5017520;28;20070;-81
2023/01/27 10:02:01;;;;;;;30.70;14.77;;;-0.80;99.90;;;;;;5034096;28;20053;-82
2023/01/27 10:04:58;;;;;;;31.07;15.40;;;-0.70;99.90;;;;;;5027603;28;20127;-77
2023/01/27 10:07:39;;;;;;;32.30;15.73;;;-0.70;99.90;;;;;;5017227;28;20429;-76
2023/01/27 10:10:31;;;;;;;34.83;16.40;;;-0.70;99.90;;;;;;5040790;28;20052;-76
2023/01/27 10:13:09;;;;;;;37.10;16.50;;;-0.70;99.90;;;;;;5041498;28;20436;-76
2023/01/27 10:16:02;;;;;;;34.30;16.03;;;-0.70;99.90;;;;;;5040577;28;20381;-77
2023/01/27 10:19:05;;;;;;;32.83;15.90;;;-0.70;99.90;;;;;;5036207;28;20032;-77
2023/01/27 10:21:49;;;;;;;34.93;15.97;;;-0.70;99.90;;;;;;5021422;28;20040;-81
2023/01/27 10:24:55;;;;;;;33.37;15.40;;;-0.70;99.90;;;;;;5037447;28;20025;-74
2023/01/27 10:27:26;;;;;;;111.83;44.00;;;-0.60;99.90;;;;;;5021458;28;20051;-75
2023/01/27 10:30:02;;;;;;;110.87;46.37;;;-0.60;99.90;;;;;;5035185;28;20074;-80
2023/01/27 10:32:43;;;;;;;29.37;14.70;;;-0.60;99.90;;;;;;5035047;28;20476;-82
2023/01/27 10:35:27;;;;;;;148.57;50.70;;;-0.60;99.90;;;;;;5015525;28;20040;-80
2023/01/27 10:38:09;;;;;;;135.93;39.33;;;-0.60;99.90;;;;;;5033633;28;20025;-80
2023/01/27 10:40:51;;;;;;;139.97;41.63;;;-0.60;99.90;;;;;;5034327;28;20423;-80
2023/01/27 10:43:45;;;;;;;110.63;36.40;;;-0.60;99.90;;;;;;5017967;28;20032;-82
2023/01/27 10:46:27;;;;;;;31.87;15.47;;;-0.50;99.90;;;;;;5036260;28;20487;-75
2023/01/27 10:49:12;;;;;;;23.77;11.93;;;-0.50;99.90;;;;;;5027119;28;20067;-75
2023/01/27 10:51:42;;;;;;;;;;;-0.50;99.90;;;;;;5028391;28;20090;-75
2023/01/27 10:54:23;;;;;;;26.57;13.17;;;-0.50;99.90;;;;;;5044092;28;19905;-75
2023/01/27 10:57:01;;;;;;;24.33;11.83;;;-0.50;99.90;;;;;;5041418;28;20103;-75
2023/01/27 10:59:56;;;;;;;27.13;12.40;;;-0.50;99.90;;;;;;5043339;28;20571;-75
2023/01/27 11:02:41;;;;;;;27.43;12.57;;;-0.50;99.90;;;;;;5037329;28;20047;-76
2023/01/27 11:05:29;;;;;;;27.27;13.68;;;-0.50;99.90;;;;;;5041795;28;20048;-75
2023/01/27 11:08:11;;;;;;;29.53;15.57;;;-0.50;99.90;;;;;;5042394;28;20040;-75
2023/01/27 11:11:42;;;;;;;25.33;13.53;;;-0.40;99.90;;;;;;5042859;28;20424;-80
2023/01/27 11:13:31;;;;;;;28.30;13.93;;;-0.40;99.90;;;;;;5038913;28;20067;-80
2023/01/27 11:15:57;;;;;;;31.13;14.73;;;-0.40;99.90;;;;;;5041517;28;20029;-75
2023/01/27 11:18:29;;;;;;;33.60;16.83;;;-0.40;99.90;;;;;;5042234;28;20468;-75
2023/01/27 11:21:02;;;;;;;27.60;14.33;;;-0.40;99.90;;;;;;5043462;28;20072;-75
2023/01/27 11:23:37;;;;;;;34.53;15.67;;;-0.40;99.90;;;;;;5026038;28;20018;-75
2023/01/27 11:26:24;;;;;;;36.40;18.80;;;-0.40;99.90;;;;;;5043522;28;20034;-75
2023/01/27 11:28:52;;;;;;;33.77;16.50;;;-0.40;99.90;;;;;;5041906;28;20025;-75
2023/01/27 11:31:38;;;;;;;29.47;14.43;;;-0.40;99.90;;;;;;5042569;28;20079;-72
2023/01/27 11:34:29;;;;;;;30.23;15.13;;;-0.30;99.90;;;;;;5024632;28;20025;-75
2023/01/27 11:36:54;;;;;;;31.27;15.53;;;-0.20;99.90;;;;;;5039973;28;20024;-74
2023/01/27 11:39:20;;;;;;;35.90;16.60;;;-0.20;99.90;;;;;;5039191;28;20095;-74
2023/01/27 11:41:50;;;;;;;30.50;15.30;;;-0.30;99.90;;;;;;5039259;28;20156;-79
2023/01/27 11:44:19;;;;;;;35.00;17.23;;;-0.30;99.90;;;;;;5037917;28;20071;-79
2023/01/27 11:46:46;;;;;;;35.73;17.00;;;-0.30;99.90;;;;;;5022645;28;20756;-79
2023/01/27 11:49:18;;;;;;;31.50;13.93;;;-0.30;99.90;;;;;;5038856;28;20488;-79
2023/01/27 11:51:44;;;;;;;25.33;13.20;;;-0.20;99.90;;;;;;5019935;28;20021;-79
2023/01/27 11:54:28;;;;;;;42.77;18.83;;;-0.20;99.90;;;;;;5021065;28;20107;-79
2023/01/27 11:56:54;;;;;;;83.57;28.57;;;-0.20;99.90;;;;;;5041836;28;20021;-79
2023/01/27 11:59:25;;;;;;;76.57;26.63;;;-0.20;99.90;;;;;;5035645;28;20048;-81
2023/01/27 12:02:23;;;;;;;79.83;28.50;;;-0.20;99.90;;;;;;5018635;28;20055;-81
2023/01/27 12:05:05;;;;;;;47.40;20.97;;;-0.20;99.90;;;;;;5018822;28;20041;-81
2023/01/27 12:07:49;;;;;;;31.50;15.30;;;-0.20;99.90;;;;;;5017818;28;20108;-81
2023/01/27 12:10:23;;;;;;;37.47;16.47;;;-0.10;99.90;;;;;;5037593;28;20492;-81
2023/01/27 12:12:49;;;;;;;37.43;15.40;;;-0.10;99.90;;;;;;5037492;28;20068;-81
2023/01/27 12:15:17;;;;;;;30.10;14.27;;;0.00;99.90;;;;;;5019220;28;20423;-80
2023/01/27 12:18:00;;;;;;;60.80;24.80;;;0.00;99.90;;;;;;5018497;28;20029;-81
2023/01/27 12:20:36;;;;;;;29.00;13.50;;;0.10;99.90;;;;;;5036131;28;20106;-81
2023/01/27 12:23:18;;;;;;;26.93;13.03;;;0.10;99.90;;;;;;5018256;28;20031;-81
2023/01/27 12:25:49;;;;;;;34.33;15.03;;;0.10;99.90;;;;;;5033756;28;20956;-81
2023/01/27 12:28:36;;;;;;;29.90;13.00;;;0.20;99.90;;;;;;5032693;28;20037;-81
2023/01/27 12:31:09;;;;;;;41.67;20.27;;;0.20;99.90;;;;;;5019851;28;20029;-81
2023/01/27 12:33:38;;;;;;;26.00;13.63;;;0.20;99.90;;;;;;5035925;28;20029;-81
2023/01/27 12:36:21;;;;;;;26.07;12.30;;;0.20;99.90;;;;;;5033907;28;20040;-81
2023/01/27 12:39:01;;;;;;;26.33;14.00;;;0.20;99.90;;;;;;5037922;28;20068;-79
2023/01/27 12:41:29;;;;;;;24.47;12.70;;;0.20;99.90;;;;;;5018420;28;21463;-80
2023/01/27 12:43:59;;;;;;;29.03;13.00;;;0.20;99.90;;;;;;5035085;28;20086;-80
2023/01/27 12:46:30;;;;;;;32.33;15.10;;;0.10;99.90;;;;;;5034713;28;20021;-80
2023/01/27 12:49:10;;;;;;;27.17;13.77;;;0.10;99.90;;;;;;5017482;28;20025;-79
2023/01/27 12:51:54;;;;;;;29.17;14.57;;;0.00;99.90;;;;;;5035160;28;20021;-79
2023/01/27 12:54:23;;;;;;;23.90;12.53;;;0.00;99.90;;;;;;5035488;28;20032;-79
2023/01/27 12:56:52;;;;;;;23.30;11.77;;;0.00;99.90;;;;;;5036975;28;20063;-75
2023/01/27 12:59:20;;;;;;;22.70;10.43;;;0.00;99.90;;;;;;5024509;28;20059;-75
2023/01/27 13:02:15;;;;;;;22.90;11.23;;;0.00;99.90;;;;;;5040859;28;20021;-80
2023/01/27 13:04:41;;;;;;;26.87;12.40;;;0.00;99.90;;;;;;5047145;28;20051;-76
2023/01/27 13:07:14;;;;;;;24.50;11.63;;;0.10;99.90;;;;;;5040180;28;20021;-75
2023/01/27 13:09:57;;;;;;;24.77;12.47;;;0.10;99.90;;;;;;5025133;28;20032;-76
2023/01/27 13:12:28;;;;;;;27.20;13.77;;;0.10;99.90;;;;;;5040444;28;20032;-80
2023/01/27 13:15:04;;;;;;;70.13;37.00;;;0.10;99.90;;;;;;5041105;28;20036;-74
2023/01/27 13:17:40;;;;;;;59.95;31.10;;;0.10;99.90;;;;;;5036272;28;20044;-79
2023/01/27 13:20:17;;;;;;;25.27;13.00;;;0.10;99.90;;;;;;5036476;28;20624;-79
2023/01/27 13:22:47;;;;;;;28.70;15.10;;;0.10;99.90;;;;;;5038011;28;20029;-79
2023/01/27 13:25:20;;;;;;;25.73;12.37;;;0.10;99.90;;;;;;5035519;28;20122;-79
2023/01/27 13:27:48;;;;;;;28.40;12.50;;;0.10;99.90;;;;;;5036830;28;20025;-80
2023/01/27 13:30:22;;;;;;;26.93;13.90;;;0.10;99.90;;;;;;5035903;28;21356;-80
2023/01/27 13:32:52;;;;;;;32.22;15.75;;;0.20;99.90;;;;;;5035938;28;20094;-79